sensor_id;sensor_type;location;lat;lon;timestamp;P1;durP1;ratioP1;P2;durP2;ratioP2
53207;SDS011;39093;52.788;6.940;2023-04-01T00:01:45;9.18;;;6.18;;
53207;SDS011;39093;52.788;6.940;2023-04-01T00:04:13;11.35;;;6.78;;
53207;SDS011;39093;52.788;6.940;2023-04-01T00:06:39;8.18;;;5.88;;
53207;SDS011;39093;52.788;6.940;2023-04-01T00:09:06;10.60;;;5.95;;
53207;SDS011;39093;52.788;6.940;2023-04-01T00:11:33;7.75;;;5.45;;
53207;SDS011;39093;52.788;6.940;2023-04-01T00:14:00;10.55;;;5.95;;
53207;SDS011;39093;52.788;6.940;2023-04-01T00:16:27;12.50;;;6.22;;
53207;SDS011;39093;52.788;6.940;2023-04-01T00:18:54;12.40;;;6.03;;
53207;SDS011;39093;52.788;6.940;2023-04-01T00:21:21;13.27;;;6.03;;
53207;SDS011;39093;52.788;6.940;2023-04-01T00:23:49;7.82;;;5.07;;
53207;SDS011;39093;52.788;6.940;2023-04-01T00:26:17;8.68;;;5.65;;
53207;SDS011;39093;52.788;6.940;2023-04-01T00:28:47;7.88;;;5.43;;
53207;SDS011;39093;52.788;6.940;2023-04-01T00:31:14;12.02;;;6.00;;
53207;SDS011;39093;52.788;6.940;2023-04-01T00:33:44;10.07;;;5.75;;
53207;SDS011;39093;52.788;6.940;2023-04-01T00:38:42;9.43;;;5.78;;
53207;SDS011;39093;52.788;6.940;2023-04-01T00:41:10;11.32;;;5.50;;
53207;SDS011;39093;52.788;6.940;2023-04-01T00:43:41;8.85;;;4.88;;
53207;SDS011;39093;52.788;6.940;2023-04-01T00:46:09;9.00;;;5.35;;
53207;SDS011;39093;52.788;6.940;2023-04-01T00:48:36;10.90;;;5.70;;
53207;SDS011;39093;52.788;6.940;2023-04-01T00:53:52;8.35;;;5.18;;
53207;SDS011;39093;52.788;6.940;2023-04-01T00:56:22;12.30;;;5.10;;
53207;SDS011;39093;52.788;6.940;2023-04-01T00:59:00;10.40;;;5.10;;
53207;SDS011;39093;52.788;6.940;2023-04-01T01:01:31;13.30;;;6.03;;
53207;SDS011;39093;52.788;6.940;2023-04-01T01:03:59;10.82;;;5.70;;
53207;SDS011;39093;52.788;6.940;2023-04-01T01:06:39;7.10;;;5.38;;
53207;SDS011;39093;52.788;6.940;2023-04-01T01:09:38;7.03;;;4.85;;
53207;SDS011;39093;52.788;6.940;2023-04-01T01:26:33;10.48;;;4.63;;
53207;SDS011;39093;52.788;6.940;2023-04-01T01:32:24;8.90;;;4.78;;
53207;SDS011;39093;52.788;6.940;2023-04-01T01:37:42;6.78;;;4.50;;
53207;SDS011;39093;52.788;6.940;2023-04-01T01:40:12;8.10;;;4.43;;
53207;SDS011;39093;52.788;6.940;2023-04-01T01:42:43;11.07;;;5.80;;
53207;SDS011;39093;52.788;6.940;2023-04-01T01:47:44;6.47;;;4.80;;
53207;SDS011;39093;52.788;6.940;2023-04-01T01:50:13;7.30;;;5.72;;
53207;SDS011;39093;52.788;6.940;2023-04-01T01:52:41;9.82;;;5.88;;
53207;SDS011;39093;52.788;6.940;2023-04-01T01:55:28;12.93;;;6.95;;
53207;SDS011;39093;52.788;6.940;2023-04-01T01:57:58;11.73;;;6.45;;
53207;SDS011;39093;52.788;6.940;2023-04-01T02:00:31;10.93;;;6.53;;
53207;SDS011;39093;52.788;6.940;2023-04-01T02:02:59;14.52;;;6.55;;
53207;SDS011;39093;52.788;6.940;2023-04-01T02:05:27;9.20;;;5.78;;
53207;SDS011;39093;52.788;6.940;2023-04-01T02:10:31;15.40;;;7.45;;
53207;SDS011;39093;52.788;6.940;2023-04-01T02:13:05;12.13;;;6.97;;
53207;SDS011;39093;52.788;6.940;2023-04-01T02:15:37;8.88;;;6.50;;
53207;SDS011;39093;52.788;6.940;2023-04-01T02:18:11;12.95;;;7.45;;
53207;SDS011;39093;52.788;6.940;2023-04-01T02:20:39;13.43;;;7.15;;
53207;SDS011;39093;52.788;6.940;2023-04-01T02:23:07;9.57;;;6.80;;
53207;SDS011;39093;52.788;6.940;2023-04-01T02:25:35;11.77;;;7.53;;
53207;SDS011;39093;52.788;6.940;2023-04-01T02:28:04;13.55;;;8.32;;
53207;SDS011;39093;52.788;6.940;2023-04-01T02:30:34;14.60;;;7.30;;
53207;SDS011;39093;52.788;6.940;2023-04-01T02:33:03;14.40;;;8.30;;
53207;SDS011;39093;52.788;6.940;2023-04-01T02:35:32;11.57;;;7.57;;
53207;SDS011;39093;52.788;6.940;2023-04-01T02:38:02;7.97;;;6.18;;
53207;SDS011;39093;52.788;6.940;2023-04-01T02:40:40;14.40;;;6.75;;
53207;SDS011;39093;52.788;6.940;2023-04-01T02:43:17;8.93;;;5.88;;
53207;SDS011;39093;52.788;6.940;2023-04-01T02:45:45;15.00;;;6.38;;
53207;SDS011;39093;52.788;6.940;2023-04-01T02:48:12;13.00;;;6.30;;
53207;SDS011;39093;52.788;6.940;2023-04-01T02:50:40;9.07;;;6.72;;
53207;SDS011;39093;52.788;6.940;2023-04-01T02:53:07;10.98;;;6.30;;
53207;SDS011;39093;52.788;6.940;2023-04-01T02:55:34;9.88;;;5.88;;
53207;SDS011;39093;52.788;6.940;2023-04-01T02:58:01;9.27;;;6.45;;
53207;SDS011;39093;52.788;6.940;2023-04-01T03:00:28;12.07;;;6.35;;
53207;SDS011;39093;52.788;6.940;2023-04-01T03:02:55;12.48;;;6.05;;
53207;SDS011;39093;52.788;6.940;2023-04-01T03:05:23;12.75;;;6.55;;
53207;SDS011;39093;52.788;6.940;2023-04-01T03:07:50;10.35;;;6.38;;
53207;SDS011;39093;52.788;6.940;2023-04-01T03:10:17;15.75;;;6.88;;
53207;SDS011;39093;52.788;6.940;2023-04-01T03:12:44;11.25;;;6.40;;
53207;SDS011;39093;52.788;6.940;2023-04-01T03:15:11;9.63;;;5.97;;
53207;SDS011;39093;52.788;6.940;2023-04-01T03:17:40;12.40;;;7.65;;
53207;SDS011;39093;52.788;6.940;2023-04-01T03:20:08;13.23;;;6.50;;
53207;SDS011;39093;52.788;6.940;2023-04-01T03:22:37;11.98;;;6.57;;
53207;SDS011;39093;52.788;6.940;2023-04-01T03:25:06;13.45;;;7.15;;
53207;SDS011;39093;52.788;6.940;2023-04-01T03:27:34;12.60;;;7.55;;
53207;SDS011;39093;52.788;6.940;2023-04-01T03:30:02;12.93;;;7.07;;
53207;SDS011;39093;52.788;6.940;2023-04-01T03:32:31;11.82;;;6.68;;
53207;SDS011;39093;52.788;6.940;2023-04-01T03:34:58;10.50;;;7.13;;
53207;SDS011;39093;52.788;6.940;2023-04-01T03:37:25;13.07;;;7.03;;
53207;SDS011;39093;52.788;6.940;2023-04-01T03:39:52;12.32;;;6.82;;
53207;SDS011;39093;52.788;6.940;2023-04-01T03:42:19;13.00;;;6.47;;
53207;SDS011;39093;52.788;6.940;2023-04-01T03:44:47;7.95;;;6.53;;
53207;SDS011;39093;52.788;6.940;2023-04-01T03:47:13;10.10;;;6.93;;
53207;SDS011;39093;52.788;6.940;2023-04-01T03:49:40;9.98;;;6.90;;
53207;SDS011;39093;52.788;6.940;2023-04-01T03:52:10;10.00;;;6.63;;
53207;SDS011;39093;52.788;6.940;2023-04-01T03:54:37;8.93;;;6.55;;
53207;SDS011;39093;52.788;6.940;2023-04-01T03:57:04;14.38;;;6.82;;
53207;SDS011;39093;52.788;6.940;2023-04-01T03:59:31;10.77;;;7.07;;
53207;SDS011;39093;52.788;6.940;2023-04-01T04:01:58;11.02;;;6.85;;
53207;SDS011;39093;52.788;6.940;2023-04-01T04:04:26;12.68;;;7.32;;
53207;SDS011;39093;52.788;6.940;2023-04-01T04:06:53;14.70;;;7.75;;
53207;SDS011;39093;52.788;6.940;2023-04-01T04:09:20;10.70;;;7.05;;
53207;SDS011;39093;52.788;6.940;2023-04-01T04:11:48;11.68;;;8.27;;
53207;SDS011;39093;52.788;6.940;2023-04-01T04:14:15;12.45;;;7.47;;
53207;SDS011;39093;52.788;6.940;2023-04-01T04:16:42;9.15;;;7.47;;
53207;SDS011;39093;52.788;6.940;2023-04-01T04:19:09;8.23;;;6.93;;
53207;SDS011;39093;52.788;6.940;2023-04-01T04:21:36;9.27;;;7.40;;
53207;SDS011;39093;52.788;6.940;2023-04-01T04:24:03;14.32;;;8.05;;
53207;SDS011;39093;52.788;6.940;2023-04-01T04:26:30;11.82;;;7.50;;
53207;SDS011;39093;52.788;6.940;2023-04-01T04:28:57;10.43;;;8.30;;
53207;SDS011;39093;52.788;6.940;2023-04-01T04:31:24;12.52;;;7.70;;
53207;SDS011;39093;52.788;6.940;2023-04-01T04:33:51;11.70;;;8.82;;
53207;SDS011;39093;52.788;6.940;2023-04-01T04:36:19;11.02;;;8.25;;
53207;SDS011;39093;52.788;6.940;2023-04-01T04:38:47;14.70;;;11.18;;
53207;SDS011;39093;52.788;6.940;2023-04-01T04:41:15;13.55;;;10.00;;
53207;SDS011;39093;52.788;6.940;2023-04-01T04:43:51;16.65;;;10.30;;
53207;SDS011;39093;52.788;6.940;2023-04-01T04:46:20;13.60;;;10.35;;
53207;SDS011;39093;52.788;6.940;2023-04-01T04:48:48;13.70;;;9.82;;
53207;SDS011;39093;52.788;6.940;2023-04-01T04:51:15;15.63;;;10.90;;
53207;SDS011;39093;52.788;6.940;2023-04-01T04:53:43;17.08;;;11.27;;
53207;SDS011;39093;52.788;6.940;2023-04-01T04:56:11;16.80;;;12.63;;
53207;SDS011;39093;52.788;6.940;2023-04-01T04:58:38;17.75;;;13.32;;
53207;SDS011;39093;52.788;6.940;2023-04-01T05:01:06;17.38;;;12.93;;
53207;SDS011;39093;52.788;6.940;2023-04-01T05:03:38;24.17;;;15.90;;
53207;SDS011;39093;52.788;6.940;2023-04-01T05:06:05;26.00;;;16.20;;
53207;SDS011;39093;52.788;6.940;2023-04-01T05:08:34;26.13;;;17.15;;
53207;SDS011;39093;52.788;6.940;2023-04-01T05:11:01;26.92;;;18.85;;
53207;SDS011;39093;52.788;6.940;2023-04-01T05:13:29;28.90;;;18.85;;
53207;SDS011;39093;52.788;6.940;2023-04-01T05:15:56;21.80;;;16.92;;
53207;SDS011;39093;52.788;6.940;2023-04-01T05:18:22;25.50;;;18.08;;
53207;SDS011;39093;52.788;6.940;2023-04-01T05:20:50;27.08;;;17.60;;
53207;SDS011;39093;52.788;6.940;2023-04-01T05:23:19;25.83;;;17.55;;
53207;SDS011;39093;52.788;6.940;2023-04-01T05:25:48;28.23;;;17.35;;
53207;SDS011;39093;52.788;6.940;2023-04-01T05:28:16;22.40;;;16.40;;
53207;SDS011;39093;52.788;6.940;2023-04-01T05:30:43;27.20;;;16.65;;
53207;SDS011;39093;52.788;6.940;2023-04-01T05:33:11;23.92;;;17.20;;
53207;SDS011;39093;52.788;6.940;2023-04-01T05:35:39;22.42;;;16.15;;
53207;SDS011;39093;52.788;6.940;2023-04-01T05:38:06;21.17;;;15.63;;
53207;SDS011;39093;52.788;6.940;2023-04-01T05:40:34;22.15;;;14.45;;
53207;SDS011;39093;52.788;6.940;2023-04-01T05:43:01;21.98;;;15.90;;
53207;SDS011;39093;52.788;6.940;2023-04-01T05:45:28;22.30;;;15.65;;
53207;SDS011;39093;52.788;6.940;2023-04-01T05:47:55;24.38;;;16.55;;
53207;SDS011;39093;52.788;6.940;2023-04-01T05:50:22;20.85;;;16.38;;
53207;SDS011;39093;52.788;6.940;2023-04-01T05:52:49;24.30;;;16.88;;
53207;SDS011;39093;52.788;6.940;2023-04-01T05:55:15;28.40;;;17.13;;
53207;SDS011;39093;52.788;6.940;2023-04-01T05:57:44;25.15;;;16.35;;
53207;SDS011;39093;52.788;6.940;2023-04-01T06:00:12;21.13;;;15.80;;
53207;SDS011;39093;52.788;6.940;2023-04-01T06:02:39;23.67;;;17.23;;
53207;SDS011;39093;52.788;6.940;2023-04-01T06:05:11;21.80;;;15.65;;
53207;SDS011;39093;52.788;6.940;2023-04-01T06:07:41;23.38;;;15.73;;
53207;SDS011;39093;52.788;6.940;2023-04-01T06:10:12;20.17;;;14.70;;
53207;SDS011;39093;52.788;6.940;2023-04-01T06:12:56;22.15;;;14.90;;
53207;SDS011;39093;52.788;6.940;2023-04-01T06:23:54;19.70;;;15.10;;
53207;SDS011;39093;52.788;6.940;2023-04-01T06:26:43;22.30;;;15.23;;
53207;SDS011;39093;52.788;6.940;2023-04-01T06:35:17;25.45;;;15.10;;
53207;SDS011;39093;52.788;6.940;2023-04-01T06:54:31;18.90;;;13.85;;
53207;SDS011;39093;52.788;6.940;2023-04-01T06:57:20;16.25;;;12.20;;
53207;SDS011;39093;52.788;6.940;2023-04-01T06:59:51;19.33;;;13.05;;
53207;SDS011;39093;52.788;6.940;2023-04-01T07:02:29;18.75;;;12.55;;
53207;SDS011;39093;52.788;6.940;2023-04-01T07:05:04;15.63;;;11.57;;
53207;SDS011;39093;52.788;6.940;2023-04-01T07:07:40;15.88;;;11.90;;
53207;SDS011;39093;52.788;6.940;2023-04-01T07:10:12;24.83;;;16.55;;
53207;SDS011;39093;52.788;6.940;2023-04-01T07:12:58;16.55;;;11.93;;
53207;SDS011;39093;52.788;6.940;2023-04-01T07:15:33;15.82;;;11.48;;
53207;SDS011;39093;52.788;6.940;2023-04-01T07:20:37;20.50;;;10.85;;
53207;SDS011;39093;52.788;6.940;2023-04-01T07:23:27;14.38;;;10.88;;
53207;SDS011;39093;52.788;6.940;2023-04-01T07:26:11;15.70;;;11.25;;
53207;SDS011;39093;52.788;6.940;2023-04-01T07:28:48;15.02;;;10.50;;
53207;SDS011;39093;52.788;6.940;2023-04-01T07:36:35;17.42;;;11.55;;
53207;SDS011;39093;52.788;6.940;2023-04-01T08:00:57;14.27;;;9.25;;
53207;SDS011;39093;52.788;6.940;2023-04-01T08:03:43;20.85;;;13.95;;
53207;SDS011;39093;52.788;6.940;2023-04-01T08:09:07;11.63;;;8.48;;
53207;SDS011;39093;52.788;6.940;2023-04-01T08:17:36;9.32;;;6.20;;
53207;SDS011;39093;52.788;6.940;2023-04-01T08:20:53;11.57;;;7.15;;
53207;SDS011;39093;52.788;6.940;2023-04-01T08:23:21;12.25;;;6.88;;
53207;SDS011;39093;52.788;6.940;2023-04-01T08:26:00;11.23;;;5.57;;
53207;SDS011;39093;52.788;6.940;2023-04-01T08:28:41;9.48;;;6.32;;
53207;SDS011;39093;52.788;6.940;2023-04-01T08:31:18;11.20;;;5.88;;
53207;SDS011;39093;52.788;6.940;2023-04-01T08:34:08;7.72;;;5.28;;
53207;SDS011;39093;52.788;6.940;2023-04-01T08:36:58;7.20;;;5.00;;
53207;SDS011;39093;52.788;6.940;2023-04-01T08:39:29;6.57;;;4.38;;
53207;SDS011;39093;52.788;6.940;2023-04-01T08:50:42;3.25;;;2.25;;
53207;SDS011;39093;52.788;6.940;2023-04-01T09:20:45;6.57;;;5.50;;
53207;SDS011;39093;52.788;6.940;2023-04-01T09:42:16;7.55;;;6.85;;
53207;SDS011;39093;52.788;6.940;2023-04-01T09:45:07;5.93;;;5.32;;
53207;SDS011;39093;52.788;6.940;2023-04-01T09:53:12;6.85;;;6.15;;
53207;SDS011;39093;52.788;6.940;2023-04-01T10:04:33;6.28;;;5.65;;
53207;SDS011;39093;52.788;6.940;2023-04-01T10:22:13;6.57;;;5.78;;
53207;SDS011;39093;52.788;6.940;2023-04-01T10:28:02;6.07;;;5.47;;
53207;SDS011;39093;52.788;6.940;2023-04-01T10:36:47;5.88;;;4.97;;
53207;SDS011;39093;52.788;6.940;2023-04-01T10:45:32;6.45;;;5.40;;
53207;SDS011;39093;52.788;6.940;2023-04-01T10:54:46;6.38;;;5.38;;
53207;SDS011;39093;52.788;6.940;2023-04-01T11:19:50;10.25;;;9.25;;
53207;SDS011;39093;52.788;6.940;2023-04-01T11:25:19;10.00;;;8.70;;
53207;SDS011;39093;52.788;6.940;2023-04-01T11:28:16;10.52;;;8.57;;
53207;SDS011;39093;52.788;6.940;2023-04-01T11:42:43;5.97;;;5.45;;
53207;SDS011;39093;52.788;6.940;2023-04-01T11:48:07;7.07;;;6.28;;
53207;SDS011;39093;52.788;6.940;2023-04-01T11:51:31;4.38;;;3.97;;
53207;SDS011;39093;52.788;6.940;2023-04-01T11:59:51;3.63;;;3.33;;
53207;SDS011;39093;52.788;6.940;2023-04-01T12:02:31;3.22;;;2.92;;
53207;SDS011;39093;52.788;6.940;2023-04-01T12:05:11;4.95;;;3.60;;
53207;SDS011;39093;52.788;6.940;2023-04-01T12:07:56;3.90;;;3.40;;
53207;SDS011;39093;52.788;6.940;2023-04-01T12:16:26;3.20;;;3.00;;
53207;SDS011;39093;52.788;6.940;2023-04-01T12:29:59;2.85;;;2.65;;
53207;SDS011;39093;52.788;6.940;2023-04-01T12:52:09;4.07;;;3.00;;
53207;SDS011;39093;52.788;6.940;2023-04-01T12:54:52;3.58;;;2.90;;
53207;SDS011;39093;52.788;6.940;2023-04-01T12:57:37;6.28;;;3.30;;
53207;SDS011;39093;52.788;6.940;2023-04-01T13:12:03;3.83;;;3.50;;
53207;SDS011;39093;52.788;6.940;2023-04-01T13:18:27;4.30;;;4.00;;
53207;SDS011;39093;52.788;6.940;2023-04-01T13:20:43;4.97;;;4.22;;
53207;SDS011;39093;52.788;6.940;2023-04-01T13:28:50;3.95;;;3.50;;
53207;SDS011;39093;52.788;6.940;2023-04-01T13:31:25;4.10;;;3.80;;
53207;SDS011;39093;52.788;6.940;2023-04-01T13:37:09;4.07;;;3.78;;
53207;SDS011;39093;52.788;6.940;2023-04-01T13:42:23;3.88;;;3.58;;
53207;SDS011;39093;52.788;6.940;2023-04-01T13:45:08;3.50;;;3.20;;
53207;SDS011;39093;52.788;6.940;2023-04-01T14:20:45;3.33;;;3.13;;
53207;SDS011;39093;52.788;6.940;2023-04-01T14:29:18;4.53;;;3.72;;
53207;SDS011;39093;52.788;6.940;2023-04-01T14:40:43;4.82;;;4.43;;
53207;SDS011;39093;52.788;6.940;2023-04-01T14:54:55;4.55;;;4.25;;
53207;SDS011;39093;52.788;6.940;2023-04-01T14:59:54;3.47;;;3.17;;
53207;SDS011;39093;52.788;6.940;2023-04-01T15:08:28;2.20;;;2.08;;
53207;SDS011;39093;52.788;6.940;2023-04-01T15:16:58;3.00;;;2.80;;
53207;SDS011;39093;52.788;6.940;2023-04-01T15:28:08;2.47;;;2.28;;
53207;SDS011;39093;52.788;6.940;2023-04-01T15:36:29;2.85;;;2.65;;
53207;SDS011;39093;52.788;6.940;2023-04-01T15:45:58;1.90;;;1.70;;
53207;SDS011;39093;52.788;6.940;2023-04-01T15:51:07;1.52;;;1.42;;
53207;SDS011;39093;52.788;6.940;2023-04-01T15:56:44;2.03;;;1.83;;
53207;SDS011;39093;52.788;6.940;2023-04-01T16:10:25;1.58;;;1.48;;
53207;SDS011;39093;52.788;6.940;2023-04-01T16:13:22;1.70;;;1.60;;
53207;SDS011;39093;52.788;6.940;2023-04-01T16:18:40;2.28;;;1.85;;
53207;SDS011;39093;52.788;6.940;2023-04-01T16:21:33;1.92;;;1.83;;
53207;SDS011;39093;52.788;6.940;2023-04-01T16:24:05;2.65;;;2.25;;
53207;SDS011;39093;52.788;6.940;2023-04-01T16:26:57;2.05;;;1.85;;
53207;SDS011;39093;52.788;6.940;2023-04-01T16:32:31;1.40;;;1.30;;
53207;SDS011;39093;52.788;6.940;2023-04-01T16:37:46;1.63;;;1.52;;
53207;SDS011;39093;52.788;6.940;2023-04-01T16:40:32;4.30;;;1.58;;
53207;SDS011;39093;52.788;6.940;2023-04-01T16:43:25;2.10;;;1.88;;
53207;SDS011;39093;52.788;6.940;2023-04-01T16:46:02;2.35;;;2.03;;
53207;SDS011;39093;52.788;6.940;2023-04-01T16:49:24;2.78;;;2.00;;
53207;SDS011;39093;52.788;6.940;2023-04-01T17:04:47;3.47;;;3.15;;
53207;SDS011;39093;52.788;6.940;2023-04-01T17:13:46;3.35;;;3.00;;
53207;SDS011;39093;52.788;6.940;2023-04-01T17:27:33;3.97;;;3.55;;
53207;SDS011;39093;52.788;6.940;2023-04-01T17:36:06;5.20;;;3.85;;
53207;SDS011;39093;52.788;6.940;2023-04-01T17:41:46;3.78;;;3.47;;
53207;SDS011;39093;52.788;6.940;2023-04-01T17:47:03;4.05;;;3.65;;
53207;SDS011;39093;52.788;6.940;2023-04-01T17:52:43;4.03;;;3.55;;
53207;SDS011;39093;52.788;6.940;2023-04-01T17:58:46;5.13;;;4.22;;
53207;SDS011;39093;52.788;6.940;2023-04-01T18:10:56;5.07;;;4.55;;
53207;SDS011;39093;52.788;6.940;2023-04-01T18:16:12;5.00;;;4.07;;
53207;SDS011;39093;52.788;6.940;2023-04-01T18:19:45;4.70;;;4.22;;
53207;SDS011;39093;52.788;6.940;2023-04-01T18:22:15;5.75;;;4.63;;
53207;SDS011;39093;52.788;6.940;2023-04-01T18:25:05;5.55;;;4.25;;
53207;SDS011;39093;52.788;6.940;2023-04-01T18:27:43;5.25;;;4.15;;
53207;SDS011;39093;52.788;6.940;2023-04-01T18:30:15;4.97;;;4.50;;
53207;SDS011;39093;52.788;6.940;2023-04-01T18:35:52;5.18;;;4.65;;
53207;SDS011;39093;52.788;6.940;2023-04-01T18:38:30;6.35;;;4.68;;
53207;SDS011;39093;52.788;6.940;2023-04-01T18:41:20;5.50;;;4.95;;
53207;SDS011;39093;52.788;6.940;2023-04-01T18:44:19;6.18;;;5.57;;
53207;SDS011;39093;52.788;6.940;2023-04-01T18:55:24;10.02;;;7.88;;
53207;SDS011;39093;52.788;6.940;2023-04-01T18:57:58;9.45;;;8.00;;
53207;SDS011;39093;52.788;6.940;2023-04-01T19:06:00;6.43;;;5.78;;
53207;SDS011;39093;52.788;6.940;2023-04-01T19:08:41;10.77;;;6.43;;
53207;SDS011;39093;52.788;6.940;2023-04-01T19:11:20;7.20;;;6.40;;
53207;SDS011;39093;52.788;6.940;2023-04-01T19:14:16;6.72;;;5.95;;
53207;SDS011;39093;52.788;6.940;2023-04-01T19:27:53;8.07;;;5.85;;
53207;SDS011;39093;52.788;6.940;2023-04-01T19:30:41;7.53;;;6.47;;
53207;SDS011;39093;52.788;6.940;2023-04-01T19:33:23;11.52;;;8.57;;
53207;SDS011;39093;52.788;6.940;2023-04-01T19:41:39;7.43;;;6.07;;
53207;SDS011;39093;52.788;6.940;2023-04-01T19:44:21;7.40;;;5.93;;
53207;SDS011;39093;52.788;6.940;2023-04-01T19:47:35;10.15;;;5.72;;
53207;SDS011;39093;52.788;6.940;2023-04-01T19:53:18;10.10;;;7.03;;
53207;SDS011;39093;52.788;6.940;2023-04-01T19:56:23;10.50;;;7.22;;
53207;SDS011;39093;52.788;6.940;2023-04-01T20:04:17;9.75;;;7.18;;
53207;SDS011;39093;52.788;6.940;2023-04-01T20:07:09;10.02;;;7.32;;
53207;SDS011;39093;52.788;6.940;2023-04-01T20:12:25;8.43;;;5.70;;
53207;SDS011;39093;52.788;6.940;2023-04-01T20:15:03;8.38;;;5.80;;
53207;SDS011;39093;52.788;6.940;2023-04-01T20:17:52;8.98;;;6.22;;
53207;SDS011;39093;52.788;6.940;2023-04-01T20:20:21;9.20;;;6.38;;
53207;SDS011;39093;52.788;6.940;2023-04-01T20:28:21;8.43;;;5.70;;
53207;SDS011;39093;52.788;6.940;2023-04-01T20:31:05;9.35;;;6.15;;
53207;SDS011;39093;52.788;6.940;2023-04-01T20:36:20;11.00;;;7.40;;
53207;SDS011;39093;52.788;6.940;2023-04-01T20:38:58;10.70;;;5.28;;
53207;SDS011;39093;52.788;6.940;2023-04-01T20:41:56;8.30;;;5.63;;
53207;SDS011;39093;52.788;6.940;2023-04-01T20:50:51;13.02;;;6.80;;
53207;SDS011;39093;52.788;6.940;2023-04-01T21:01:40;10.05;;;6.63;;
53207;SDS011;39093;52.788;6.940;2023-04-01T21:07:28;8.00;;;6.10;;
53207;SDS011;39093;52.788;6.940;2023-04-01T21:10:29;13.07;;;7.22;;
53207;SDS011;39093;52.788;6.940;2023-04-01T21:13:36;9.40;;;7.15;;
53207;SDS011;39093;52.788;6.940;2023-04-01T21:19:35;13.10;;;8.63;;
53207;SDS011;39093;52.788;6.940;2023-04-01T21:42:44;8.18;;;6.43;;
53207;SDS011;39093;52.788;6.940;2023-04-01T22:06:59;11.75;;;7.07;;
53207;SDS011;39093;52.788;6.940;2023-04-01T22:09:55;11.52;;;7.78;;
53207;SDS011;39093;52.788;6.940;2023-04-01T22:12:36;13.13;;;7.13;;
53207;SDS011;39093;52.788;6.940;2023-04-01T22:17:49;9.45;;;6.32;;
53207;SDS011;39093;52.788;6.940;2023-04-01T22:20:29;12.20;;;6.57;;
53207;SDS011;39093;52.788;6.940;2023-04-01T22:29:49;9.10;;;6.47;;
53207;SDS011;39093;52.788;6.940;2023-04-01T22:32:40;11.27;;;6.50;;
53207;SDS011;39093;52.788;6.940;2023-04-01T22:43:37;11.10;;;7.00;;
53207;SDS011;39093;52.788;6.940;2023-04-01T22:46:15;7.95;;;6.47;;
53207;SDS011;39093;52.788;6.940;2023-04-01T22:51:43;11.20;;;6.65;;
53207;SDS011;39093;52.788;6.940;2023-04-01T22:56:52;11.82;;;6.43;;
53207;SDS011;39093;52.788;6.940;2023-04-01T22:59:35;10.80;;;6.63;;
53207;SDS011;39093;52.788;6.940;2023-04-01T23:02:22;12.57;;;7.00;;
53207;SDS011;39093;52.788;6.940;2023-04-01T23:04:54;13.40;;;6.22;;
53207;SDS011;39093;52.788;6.940;2023-04-01T23:10:25;9.63;;;5.65;;
53207;SDS011;39093;52.788;6.940;2023-04-01T23:12:54;11.65;;;6.20;;
53207;SDS011;39093;52.788;6.940;2023-04-01T23:15:24;8.02;;;5.63;;
53207;SDS011;39093;52.788;6.940;2023-04-01T23:23:35;14.98;;;6.18;;
53207;SDS011;39093;52.788;6.940;2023-04-01T23:26:29;13.13;;;6.25;;
53207;SDS011;39093;52.788;6.940;2023-04-01T23:28:58;14.55;;;6.00;;
53207;SDS011;39093;52.788;6.940;2023-04-01T23:34:00;11.63;;;5.75;;
53207;SDS011;39093;52.788;6.940;2023-04-01T23:36:43;15.57;;;6.00;;
53207;SDS011;39093;52.788;6.940;2023-04-01T23:39:26;13.98;;;5.68;;
53207;SDS011;39093;52.788;6.940;2023-04-01T23:42:02;11.15;;;5.50;;
53207;SDS011;39093;52.788;6.940;2023-04-01T23:44:32;17.88;;;6.78;;
53207;SDS011;39093;52.788;6.940;2023-04-01T23:47:01;9.68;;;5.45;;
53207;SDS011;39093;52.788;6.940;2023-04-01T23:49:37;15.40;;;6.18;;
53207;SDS011;39093;52.788;6.940;2023-04-01T23:52:12;9.57;;;5.68;;
53207;SDS011;39093;52.788;6.940;2023-04-01T23:57:29;8.10;;;4.82;;
